Time;durP1;ratioP1;P1;durP2;ratioP2;P2;SDS_P1;SDS_P2;PMS_P1;PMS_P2;Temp;Humidity;BMP_temperature;BMP_pressure;BME280_temperature;BME280_humidity;BME280_pressure;Samples;Min_cycle;Max_cycle;Signal;HPM_P1;HPM_P2
2022/02/23 00:01:06;;;;;;;27.35;3.78;;;;;;;10.88;66.15;101446.66;5045319;28;20493;-84
2022/02/23 00:03:31;;;;;;;20.35;3.58;;;;;;;10.97;65.85;101461.09;5055406;28;20083;-84
2022/02/23 00:05:57;;;;;;;23.50;4.13;;;;;;;10.73;66.41;101467.63;5053641;28;20453;-84
2022/02/23 00:08:22;;;;;;;22.05;3.75;;;;;;;10.70;66.56;101469.50;5055423;28;20036;-84
2022/02/23 00:10:48;;;;;;;23.50;3.47;;;;;;;10.84;66.28;101470.53;5055442;28;20021;-84
2022/02/23 00:13:13;;;;;;;26.33;4.57;;;;;;;10.87;65.48;101470.41;5055609;28;20474;-84
2022/02/23 00:15:38;;;;;;;22.52;4.72;;;;;;;10.93;65.08;101469.22;5055618;28;20021;-84
2022/02/23 00:18:09;;;;;;;15.93;3.22;;;;;;;10.98;65.71;101462.81;5055396;28;20037;-84
2022/02/23 00:20:35;;;;;;;28.47;3.83;;;;;;;10.97;65.31;101466.34;5053249;28;20063;-84
2022/02/23 00:23:01;;;;;;;18.52;3.70;;;;;;;11.00;65.04;101466.19;5055245;28;20490;-84
2022/02/23 00:25:26;;;;;;;14.68;4.20;;;;;;;11.00;64.86;101455.69;5055119;28;20028;-84
2022/02/23 00:27:52;;;;;;;20.27;3.92;;;;;;;11.16;64.16;101454.84;5055351;28;20154;-84
2022/02/23 00:30:17;;;;;;;24.27;5.47;;;;;;;10.99;64.34;101453.97;5053833;28;20053;-84
2022/02/23 00:32:43;;;;;;;22.70;3.78;;;;;;;10.65;65.40;101450.50;5053148;28;20368;-84
2022/02/23 00:35:08;;;;;;;27.20;4.03;;;;;;;10.81;64.90;101450.53;5053469;28;20383;-84
2022/02/23 00:37:34;;;;;;;22.15;3.58;;;;;;;10.78;65.28;101453.34;5054964;28;20032;-84
2022/02/23 00:39:59;;;;;;;19.75;3.58;;;;;;;10.52;66.70;101449.41;5054485;28;20071;-84
2022/02/23 00:42:25;;;;;;;31.60;4.25;;;;;;;10.51;66.32;101451.19;5054924;28;20017;-83
2022/02/23 00:44:50;;;;;;;21.10;3.85;;;;;;;10.56;66.56;101456.19;5054820;28;20100;-84
2022/02/23 00:47:16;;;;;;;18.85;3.33;;;;;;;10.85;65.57;101449.44;5054704;28;20025;-84
2022/02/23 00:49:41;;;;;;;27.38;3.55;;;;;;;11.14;64.71;101441.81;5052928;28;20025;-84
2022/02/23 00:52:06;;;;;;;21.80;3.70;;;;;;;11.00;64.83;101439.06;5054234;28;20135;-84
2022/02/23 00:54:34;;;;;;;15.13;3.30;;;;;;;11.00;64.59;101446.94;5054994;28;20383;-84
2022/02/23 00:57:00;;;;;;;19.50;3.67;;;;;;;10.83;64.86;101438.16;5054566;28;20029;-84
2022/02/23 00:59:25;;;;;;;23.30;4.70;;;;;;;10.79;64.89;101441.06;5054423;28;20029;-84
2022/02/23 01:01:51;;;;;;;24.17;4.38;;;;;;;10.63;65.73;101439.22;5054259;28;20104;-84
2022/02/23 01:04:16;;;;;;;30.83;5.40;;;;;;;10.51;66.20;101438.06;5054172;28;20052;-84
2022/02/23 01:06:41;;;;;;;26.23;4.70;;;;;;;10.30;66.58;101432.13;5054066;28;20360;-84
2022/02/23 01:09:07;;;;;;;21.50;3.97;;;;;;;10.41;66.57;101434.22;5054171;28;20017;-84
2022/02/23 01:11:33;;;;;;;31.98;5.18;;;;;;;10.29;67.05;101438.28;5054230;28;20025;-84
2022/02/23 01:13:59;;;;;;;29.90;4.60;;;;;;;10.16;67.58;101431.94;5052897;28;20075;-84
2022/02/23 01:16:24;;;;;;;35.40;4.68;;;;;;;10.26;67.36;101427.91;5053988;28;20395;-84
2022/02/23 01:18:50;;;;;;;25.52;4.57;;;;;;;10.45;66.66;101422.63;5054061;28;20029;-84
2022/02/23 01:21:15;;;;;;;21.90;4.60;;;;;;;10.41;66.83;101417.63;5038564;28;20442;-84
2022/02/23 01:23:41;;;;;;;26.02;4.43;;;;;;;10.80;65.61;101429.59;5034080;28;20053;-85
2022/02/23 01:26:06;;;;;;;18.40;3.40;;;;;;;10.85;65.34;101423.19;5034135;28;20021;-85
2022/02/23 01:28:33;;;;;;;27.00;4.25;;;;;;;10.80;64.86;101429.59;5033866;28;20022;-84
2022/02/23 01:30:59;;;;;;;22.48;3.85;;;;;;;10.32;66.32;101422.38;5033813;28;20104;-84
2022/02/23 01:33:25;;;;;;;23.13;4.18;;;;;;;10.37;66.07;101434.44;5032719;28;20104;-84
2022/02/23 01:35:51;;;;;;;21.88;4.30;;;;;;;10.22;65.90;101434.25;5045229;28;20033;-84
2022/02/23 01:38:17;;;;;;;22.52;3.80;;;;;;;10.04;66.59;101432.56;5051722;28;20059;-83
2022/02/23 01:40:42;;;;;;;26.63;4.88;;;;;;;9.94;66.90;101429.53;5053708;28;20017;-84
2022/02/23 01:43:08;;;;;;;24.65;4.55;;;;;;;9.83;67.11;101424.78;5052095;28;20031;-84
2022/02/23 01:45:34;;;;;;;34.13;4.65;;;;;;;10.13;65.98;101429.47;5053422;28;20025;-84
2022/02/23 01:47:59;;;;;;;23.77;4.13;;;;;;;10.30;64.84;101424.25;5053290;28;20101;-84
2022/02/23 01:50:25;;;;;;;19.90;4.80;;;;;;;10.32;64.74;101432.06;5051494;28;20525;-85
2022/02/23 01:52:50;;;;;;;25.15;4.20;;;;;;;10.08;65.41;101428.84;5053230;28;20052;-84
2022/02/23 01:55:16;;;;;;;25.27;3.85;;;;;;;9.75;66.35;101433.97;5053359;28;20532;-85
2022/02/23 01:57:41;;;;;;;16.30;3.88;;;;;;;9.49;67.24;101422.94;5052113;28;20036;-84
2022/02/23 02:00:12;;;;;;;24.60;4.13;;;;;;;9.60;66.62;101411.97;5051854;28;20418;-84
2022/02/23 02:02:37;;;;;;;17.00;4.63;;;;;;;10.03;65.35;101417.72;5053070;28;20060;-84
2022/02/23 02:05:06;;;;;;;25.42;3.75;;;;;;;9.82;65.57;101423.09;5046928;28;20048;-84
2022/02/23 02:07:31;;;;;;;17.45;3.38;;;;;;;9.41;66.76;101422.47;5034684;28;20363;-84
2022/02/23 02:09:56;;;;;;;26.70;3.33;;;;;;;9.61;65.56;101418.88;5033004;28;20032;-85
2022/02/23 02:12:22;;;;;;;31.75;4.25;;;;;;;9.34;66.91;101416.66;5033142;28;20365;-84
2022/02/23 02:14:48;;;;;;;31.15;4.68;;;;;;;9.35;67.21;101423.59;5031792;28;20464;-84
2022/02/23 02:17:14;;;;;;;31.02;3.88;;;;;;;9.33;67.50;101420.19;5033188;28;20032;-84
2022/02/23 02:19:39;;;;;;;26.90;4.53;;;;;;;9.62;66.82;101415.34;5033890;28;20021;-84
2022/02/23 02:22:08;;;;;;;29.17;3.78;;;;;;;9.64;66.24;101424.84;5032605;28;20025;-84
2022/02/23 02:24:38;;;;;;;28.08;4.95;;;;;;;9.52;66.20;101414.94;5032861;28;20029;-84
2022/02/23 02:27:06;;;;;;;29.13;5.30;;;;;;;9.43;66.52;101426.69;5032908;28;20722;-85
2022/02/23 02:29:33;;;;;;;19.52;4.55;;;;;;;9.42;66.73;101426.75;5033109;28;20491;-84
2022/02/23 02:32:00;;;;;;;23.73;4.72;;;;;;;9.23;67.96;101426.78;5033331;28;20025;-84
2022/02/23 02:34:26;;;;;;;31.38;4.97;;;;;;;9.32;67.15;101421.09;5033958;28;20080;-84
2022/02/23 02:36:52;;;;;;;27.48;5.30;;;;;;;9.28;67.71;101427.41;5033487;28;20021;-84
2022/02/23 02:39:19;;;;;;;24.63;3.92;;;;;;;9.48;66.83;101431.75;5032407;28;20426;-84
2022/02/23 02:41:45;;;;;;;37.25;4.80;;;;;;;9.53;66.91;101422.72;5033153;28;20471;-84
2022/02/23 02:44:11;;;;;;;27.65;4.38;;;;;;;9.51;66.27;101418.47;5033395;28;20395;-84
2022/02/23 02:46:37;;;;;;;23.40;4.65;;;;;;;9.50;66.32;101420.25;5033548;28;20471;-84
2022/02/23 02:49:03;;;;;;;28.35;4.18;;;;;;;9.68;66.13;101422.94;5032671;28;20080;-84
2022/02/23 02:51:28;;;;;;;20.70;4.18;;;;;;;9.72;66.06;101422.69;5048756;28;20028;-84
2022/02/23 02:53:53;;;;;;;24.38;4.35;;;;;;;9.81;65.42;101410.06;5052945;28;20024;-84
2022/02/23 02:56:19;;;;;;;30.88;4.80;;;;;;;9.63;66.40;101406.56;5053012;28;20024;-84
2022/02/23 02:58:51;;;;;;;34.97;5.18;;;;;;;9.53;66.72;101406.97;5052784;28;20244;-84
2022/02/23 03:01:18;;;;;;;25.83;4.25;;;;;;;9.56;66.21;101390.28;5052936;28;20025;-84
2022/02/23 03:03:43;;;;;;;28.42;4.63;;;;;;;9.56;66.37;101389.41;5053188;28;20410;-84
2022/02/23 03:06:08;;;;;;;17.23;3.97;;;;;;;9.53;66.79;101406.97;5038981;28;20025;-84
2022/02/23 03:08:34;;;;;;;20.80;3.95;;;;;;;9.63;66.45;101385.56;5033180;28;20026;-84
2022/02/23 03:10:59;;;;;;;26.42;5.32;;;;;;;9.52;66.25;101391.34;5032043;28;20041;-84
2022/02/23 03:13:24;;;;;;;33.72;4.13;;;;;;;9.51;66.54;101408.00;5033018;28;20017;-84
2022/02/23 03:15:50;;;;;;;28.33;6.15;;;;;;;9.32;67.15;101408.00;5033171;28;20549;-84
2022/02/23 03:18:15;;;;;;;21.27;4.40;;;;;;;9.29;66.97;101395.06;5032056;28;20033;-84
2022/02/23 03:20:41;;;;;;;26.90;4.53;;;;;;;9.21;67.68;101397.19;5034834;28;20029;-84
2022/02/23 03:23:06;;;;;;;26.58;4.78;;;;;;;9.15;67.76;101400.94;5033654;28;20038;-84
2022/02/23 03:25:32;;;;;;;33.15;5.30;;;;;;;9.03;67.92;101397.09;5033568;28;20475;-84
2022/02/23 03:27:57;;;;;;;26.02;4.10;;;;;;;9.02;68.16;101411.09;5034472;28;20026;-84
2022/02/23 03:30:22;;;;;;;24.23;4.82;;;;;;;9.05;68.03;101392.63;5034840;28;20030;-84
2022/02/23 03:32:48;;;;;;;28.33;4.82;;;;;;;9.01;68.10;101385.84;5032516;28;20063;-84
2022/02/23 03:35:13;;;;;;;25.58;4.32;;;;;;;8.99;67.51;101392.94;5033547;28;20089;-84
2022/02/23 03:37:38;;;;;;;28.33;4.55;;;;;;;9.17;66.82;101393.84;5032698;28;20049;-84
2022/02/23 03:40:04;;;;;;;32.10;5.63;;;;;;;9.12;66.66;101391.44;5032942;28;20037;-84
2022/02/23 03:42:30;;;;;;;30.90;5.30;;;;;;;9.16;66.76;101402.63;5032883;28;20025;-84
2022/02/23 03:44:55;;;;;;;29.15;5.00;;;;;;;9.15;66.53;101389.59;5040883;28;20467;-84
2022/02/23 03:47:21;;;;;;;21.90;3.47;;;;;;;8.93;67.74;101380.09;5052614;28;20438;-84
2022/02/23 03:49:46;;;;;;;30.13;4.35;;;;;;;8.82;68.25;101377.13;5052838;28;20441;-84
2022/02/23 03:52:11;;;;;;;33.95;4.50;;;;;;;8.82;68.44;101382.34;5052668;28;20455;-84
2022/02/23 03:54:37;;;;;;;28.27;4.47;;;;;;;8.83;68.58;101389.31;5053087;28;20021;-84
2022/02/23 03:57:03;;;;;;;24.38;4.05;;;;;;;8.86;68.68;101383.91;5050567;28;20406;-84
2022/02/23 03:59:29;;;;;;;24.25;5.05;;;;;;;8.87;68.74;101375.16;5052655;28;20036;-84
2022/02/23 04:01:55;;;;;;;29.65;4.47;;;;;;;8.98;68.33;101367.63;5052501;28;20460;-84
2022/02/23 04:04:21;;;;;;;40.47;5.72;;;;;;;9.02;68.43;101371.81;5050571;28;20031;-84
2022/02/23 04:06:48;;;;;;;19.10;3.80;;;;;;;9.01;67.71;101369.28;5050951;28;20084;-84
2022/02/23 04:09:14;;;;;;;24.13;3.80;;;;;;;8.90;68.47;101364.53;5052044;28;20025;-84
2022/02/23 04:11:40;;;;;;;29.95;5.18;;;;;;;8.69;68.89;101361.97;5051951;28;20052;-84
2022/02/23 04:14:06;;;;;;;26.00;4.05;;;;;;;8.61;69.21;101368.44;5051027;28;20025;-84
2022/02/23 04:16:32;;;;;;;23.75;3.35;;;;;;;8.50;68.66;101351.44;5052033;28;20028;-84
2022/02/23 04:18:57;;;;;;;20.27;3.97;;;;;;;8.41;68.77;101350.97;5049837;28;20079;-84
2022/02/23 04:21:23;;;;;;;22.05;4.40;;;;;;;8.45;68.94;101357.81;5052132;28;20025;-84
2022/02/23 04:23:48;;;;;;;25.20;4.30;;;;;;;8.42;68.98;101360.56;5051672;28;20036;-84
2022/02/23 04:26:16;;;;;;;30.95;4.63;;;;;;;8.48;69.02;101358.53;5051772;28;20031;-84
2022/02/23 04:28:42;;;;;;;23.98;3.28;;;;;;;8.49;68.46;101349.75;5054299;28;20028;-84
2022/02/23 04:31:08;;;;;;;27.35;3.50;;;;;;;8.78;67.61;101359.84;5055253;28;20033;-83
2022/02/23 04:33:35;;;;;;;20.73;3.53;;;;;;;8.73;67.34;101357.44;5055381;28;20101;-83
2022/02/23 04:36:00;;;;;;;16.50;3.33;;;;;;;8.86;66.63;101348.09;5054943;28;20116;-83
2022/02/23 04:38:26;;;;;;;26.98;4.47;;;;;;;8.81;67.24;101349.25;5055547;28;20541;-83
2022/02/23 04:40:51;;;;;;;18.27;3.83;;;;;;;8.90;67.02;101352.28;5055215;28;20383;-83
2022/02/23 04:43:16;;;;;;;16.73;3.55;;;;;;;8.87;66.61;101343.72;5054995;28;20509;-84
2022/02/23 04:45:42;;;;;;;19.80;3.65;;;;;;;8.53;68.14;101345.22;5055751;28;20024;-84
2022/02/23 04:48:08;;;;;;;21.08;3.88;;;;;;;8.70;67.33;101349.72;5054771;28;20048;-84
2022/02/23 04:50:33;;;;;;;23.48;3.85;;;;;;;8.59;68.02;101347.59;5054037;28;20028;-84
2022/02/23 04:52:59;;;;;;;23.65;3.28;;;;;;;8.71;68.03;101354.88;5054765;28;20489;-83
2022/02/23 04:55:25;;;;;;;25.92;4.00;;;;;;;8.79;67.87;101354.53;5055094;28;20033;-84
2022/02/23 04:57:50;;;;;;;19.10;3.90;;;;;;;8.87;67.66;101359.44;5054746;28;20083;-84
2022/02/23 05:00:16;;;;;;;33.75;4.75;;;;;;;8.91;67.36;101356.59;5054295;28;20056;-84
2022/02/23 05:02:41;;;;;;;36.13;4.88;;;;;;;8.87;67.70;101360.28;5054718;28;20032;-83
2022/02/23 05:05:07;;;;;;;22.42;4.15;;;;;;;8.54;68.86;101344.31;5052713;28;20095;-83
2022/02/23 05:07:33;;;;;;;23.08;3.72;;;;;;;8.58;69.41;101352.88;5054535;28;20526;-83
2022/02/23 05:09:59;;;;;;;27.88;4.18;;;;;;;8.65;68.89;101344.69;5052620;28;20025;-83
2022/02/23 05:12:24;;;;;;;22.08;4.25;;;;;;;8.69;68.97;101353.28;5053018;28;20528;-83
2022/02/23 05:14:50;;;;;;;14.13;2.33;;;;;;;8.84;68.77;101352.56;5054295;28;20063;-83
2022/02/23 05:17:16;;;;;;;22.42;3.55;;;;;;;8.96;67.96;101352.91;5054341;28;20021;-83
2022/02/23 05:19:42;;;;;;;18.70;2.60;;;;;;;8.70;68.47;101352.34;5054149;28;20040;-83
2022/02/23 05:22:08;;;;;;;20.50;3.00;;;;;;;8.72;68.40;101340.88;5053753;28;20768;-83
2022/02/23 05:24:34;;;;;;;26.55;3.70;;;;;;;8.83;68.39;101339.56;5051376;28;20029;-83
2022/02/23 05:27:00;;;;;;;25.02;3.45;;;;;;;8.61;69.90;101340.53;5043777;28;20078;-82
2022/02/23 05:29:25;;;;;;;27.65;4.22;;;;;;;8.60;69.99;101330.94;5053754;28;20037;-82
2022/02/23 05:31:52;;;;;;;24.58;3.70;;;;;;;8.71;69.31;101339.19;5050386;28;20075;-83
2022/02/23 05:34:18;;;;;;;18.15;3.15;;;;;;;8.79;69.21;101330.09;5053723;28;20394;-83
2022/02/23 05:36:43;;;;;;;23.67;3.67;;;;;;;8.88;69.71;101329.69;5052284;28;20113;-83
2022/02/23 05:39:09;;;;;;;22.92;3.67;;;;;;;8.85;69.82;101330.69;5049042;28;20493;-83
2022/02/23 05:41:34;;;;;;;25.63;4.53;;;;;;;8.99;69.51;101337.91;5033470;28;20021;-84
2022/02/23 05:44:01;;;;;;;24.13;3.75;;;;;;;9.08;69.20;101332.25;5034538;28;20036;-83
2022/02/23 05:46:26;;;;;;;27.90;3.72;;;;;;;9.02;68.95;101327.28;5033634;28;20026;-83
2022/02/23 05:48:51;;;;;;;21.95;3.42;;;;;;;9.09;69.13;101328.69;5034487;28;20036;-84
2022/02/23 05:51:44;;;;;;;30.38;3.50;;;;;;;9.13;69.17;101325.00;5048169;28;20096;-84
2022/02/23 05:54:09;;;;;;;22.58;3.97;;;;;;;9.11;69.24;101329.47;5048875;28;20527;-84
2022/02/23 05:56:36;;;;;;;22.17;3.95;;;;;;;9.10;68.67;101319.94;5051704;28;20025;-84
2022/02/23 05:59:02;;;;;;;17.60;4.03;;;;;;;9.09;68.34;101328.69;5048037;28;20029;-84
2022/02/23 06:01:27;;;;;;;24.45;4.20;;;;;;;9.05;68.69;101331.53;5040519;28;20079;-84
2022/02/23 06:03:53;;;;;;;19.42;3.67;;;;;;;8.95;68.32;101330.28;5042159;28;20025;-84
2022/02/23 06:06:18;;;;;;;26.67;3.33;;;;;;;8.89;68.46;101331.41;5043371;28;20026;-83
2022/02/23 06:08:44;;;;;;;27.48;3.05;;;;;;;8.83;68.24;101329.91;5050336;28;20029;-89
2022/02/23 06:11:09;;;;;;;23.63;3.47;;;;;;;8.65;68.66;101333.34;5048255;28;20081;-90
2022/02/23 06:13:35;;;;;;;24.10;3.65;;;;;;;8.69;68.77;101333.16;5053437;28;20055;-86
2022/02/23 06:16:01;;;;;;;20.40;4.18;;;;;;;8.75;68.53;101329.41;5046633;28;20134;-89
2022/02/23 06:18:27;;;;;;;14.38;2.75;;;;;;;8.84;68.44;101343.84;5040361;28;20053;-88
2022/02/23 06:20:55;;;;;;;21.92;3.28;;;;;;;8.87;68.83;101325.41;5039824;28;20090;-89
2022/02/23 06:23:22;;;;;;;17.50;3.95;;;;;;;8.93;68.22;101328.56;5045222;28;20071;-88
2022/02/23 06:25:47;;;;;;;21.58;3.20;;;;;;;8.92;68.27;101331.25;5051049;28;20033;-88
2022/02/23 06:28:12;;;;;;;23.33;3.65;;;;;;;8.95;68.35;101336.34;5037385;28;20027;-89
2022/02/23 06:30:38;;;;;;;22.10;3.30;;;;;;;9.05;68.23;101337.63;5050425;28;20043;-89
2022/02/23 06:33:04;;;;;;;22.30;5.25;;;;;;;9.05;67.94;101331.53;5041447;28;20096;-89
2022/02/23 06:35:29;;;;;;;14.55;3.03;;;;;;;9.21;68.24;101329.91;5039403;28;20037;-88
2022/02/23 06:37:54;;;;;;;24.45;3.13;;;;;;;9.19;68.80;101328.28;5038659;28;20028;-89
2022/02/23 06:40:20;;;;;;;21.55;3.33;;;;;;;9.24;68.73;101328.88;5037699;28;20029;-89
2022/02/23 06:42:46;;;;;;;16.05;3.05;;;;;;;9.35;68.91;101324.00;5043061;28;20108;-89
2022/02/23 06:45:12;;;;;;;14.70;3.30;;;;;;;9.48;68.63;101326.88;5035147;28;20021;-88
2022/02/23 06:47:37;;;;;;;19.42;2.88;;;;;;;9.57;68.37;101322.94;5039344;28;20060;-87
2022/02/23 06:50:03;;;;;;;20.00;2.95;;;;;;;9.61;68.02;101316.63;5038876;28;20476;-88
2022/02/23 06:52:30;;;;;;;22.73;3.53;;;;;;;9.66;68.06;101314.63;5044018;28;20031;-88
2022/02/23 06:54:56;;;;;;;20.98;3.65;;;;;;;9.73;67.67;101313.38;5040513;28;20471;-91
2022/02/23 06:57:22;;;;;;;34.83;5.93;;;;;;;9.80;67.51;101312.16;5026548;28;20025;-91
2022/02/23 06:59:47;;;;;;;19.05;3.33;;;;;;;9.93;67.16;101299.25;5040904;28;20021;-90
2022/02/23 07:02:13;;;;;;;25.73;3.65;;;;;;;9.76;67.32;101310.63;5052271;28;20048;-90
2022/02/23 07:04:39;;;;;;;17.63;3.22;;;;;;;9.70;67.83;101297.81;5051915;28;20029;-91
2022/02/23 07:07:05;;;;;;;17.95;3.15;;;;;;;9.73;67.66;101297.66;5056481;28;20386;-89
2022/02/23 07:09:31;;;;;;;35.60;3.88;;;;;;;9.74;67.78;101309.84;5051740;28;20031;-89
2022/02/23 07:11:56;;;;;;;23.38;3.65;;;;;;;9.81;67.90;101307.75;5052068;28;20486;-88
2022/02/23 07:14:22;;;;;;;23.13;3.53;;;;;;;9.87;67.92;101304.81;5041639;28;20119;-88
2022/02/23 07:16:47;;;;;;;19.80;4.10;;;;;;;9.89;67.36;101301.22;5040672;28;20040;-90
2022/02/23 07:19:13;;;;;;;25.35;4.22;;;;;;;9.98;67.56;101305.13;5040463;28;20026;-90
2022/02/23 07:21:38;;;;;;;23.08;3.78;;;;;;;9.96;66.72;101306.16;5041930;28;20037;-88
2022/02/23 07:24:05;;;;;;;24.95;3.67;;;;;;;9.99;67.76;101305.97;5037655;28;20039;-90
2022/02/23 07:26:31;;;;;;;23.63;3.47;;;;;;;10.06;66.99;101310.00;5041881;28;20055;-90
2022/02/23 07:28:58;;;;;;;21.55;3.90;;;;;;;9.93;67.55;101309.75;5042173;28;20018;-91
2022/02/23 07:31:23;;;;;;;16.05;3.50;;;;;;;10.08;67.05;101302.91;5041731;28;20037;-90
2022/02/23 07:33:51;;;;;;;16.40;3.22;;;;;;;9.99;67.08;101306.84;5038692;28;20032;-90
2022/02/23 07:36:17;;;;;;;26.00;3.60;;;;;;;10.23;66.55;101309.97;5036965;28;20026;-90
2022/02/23 07:38:45;;;;;;;10.75;2.08;;;;;;;10.30;66.68;101297.41;5042491;28;20028;-91
2022/02/23 07:41:13;;;;;;;17.17;3.33;;;;;;;10.37;66.18;101296.16;5041957;28;20112;-90
2022/02/23 07:43:39;;;;;;;23.20;3.55;;;;;;;10.36;66.55;101298.88;5038753;28;20525;-90
2022/02/23 07:46:10;;;;;;;17.77;2.85;;;;;;;10.44;66.47;101294.88;5041750;28;20048;-93
2022/02/23 07:48:37;;;;;;;12.60;3.35;;;;;;;10.59;65.75;101298.50;5052460;28;20025;-94
2022/02/23 07:51:04;;;;;;;19.33;4.00;;;;;;;10.61;65.81;101282.66;5038756;28;20033;-94
2022/02/23 07:53:30;;;;;;;14.18;2.85;;;;;;;10.65;65.65;101277.16;5036856;28;20025;-84
2022/02/23 07:55:56;;;;;;;17.00;3.10;;;;;;;10.75;65.71;101284.53;5034861;28;20026;-85
2022/02/23 07:58:21;;;;;;;16.77;3.90;;;;;;;10.80;65.67;101277.22;5043016;28;20033;-85
2022/02/23 08:00:47;;;;;;;21.73;3.42;;;;;;;10.80;65.43;101290.38;5035407;28;20030;-85
2022/02/23 08:03:13;;;;;;;17.30;3.55;;;;;;;10.81;65.61;101286.81;5030519;28;20495;-86
2022/02/23 08:05:38;;;;;;;18.15;2.92;;;;;;;10.82;65.79;101278.00;5042852;28;20037;-86
2022/02/23 08:08:04;;;;;;;20.10;3.47;;;;;;;10.94;65.86;101287.84;5042831;28;20052;-86
2022/02/23 08:10:29;;;;;;;11.68;2.08;;;;;;;11.01;65.44;101289.19;5036349;28;20044;-91
2022/02/23 08:12:58;;;;;;;20.60;3.00;;;;;;;11.25;64.91;101288.75;5034668;28;20116;-95
2022/02/23 08:20:54;;;;;;;14.75;2.72;;;;;;;11.30;64.66;101269.16;5041068;28;20108;-96
2022/02/23 08:23:20;;;;;;;14.38;2.28;;;;;;;11.23;64.97;101269.56;5046080;28;20045;-94
2022/02/23 08:25:45;;;;;;;11.25;2.35;;;;;;;11.23;65.35;101282.72;5048641;28;20446;-93
2022/02/23 08:28:10;;;;;;;13.73;2.17;;;;;;;11.34;64.82;101269.81;5052197;28;20047;-94
2022/02/23 08:30:36;;;;;;;9.73;1.77;;;;;;;11.46;65.03;101274.38;5059265;28;20036;-92
2022/02/23 08:33:03;;;;;;;19.98;2.25;;;;;;;11.59;65.19;101271.00;5060325;28;20071;-94
2022/02/23 08:35:32;;;;;;;11.60;2.15;;;;;;;11.57;65.48;101259.75;5047933;28;20033;-94
2022/02/23 08:37:58;;;;;;;9.85;1.85;;;;;;;11.60;65.02;101255.16;5048703;28;20032;-95
2022/02/23 08:40:24;;;;;;;11.27;1.90;;;;;;;11.58;65.02;101256.19;5043707;28;20017;-93
2022/02/23 08:42:50;;;;;;;13.00;1.73;;;;;;;11.64;65.30;101250.56;5053364;28;20044;-94
2022/02/23 08:45:15;;;;;;;13.23;1.73;;;;;;;11.68;64.90;101252.91;5046956;28;20071;-94
2022/02/23 08:47:41;;;;;;;13.70;2.90;;;;;;;11.67;64.76;101258.25;5048860;28;20025;-96
2022/02/23 08:50:07;;;;;;;13.77;2.42;;;;;;;11.19;65.08;101254.91;5050384;28;20487;-94
2022/02/23 08:52:33;;;;;;;15.85;2.35;;;;;;;11.54;64.30;101247.63;5040855;28;20140;-93
2022/02/23 08:54:58;;;;;;;17.27;3.42;;;;;;;11.74;64.06;101249.06;5047088;28;20060;-94
2022/02/23 08:57:24;;;;;;;11.18;2.35;;;;;;;11.69;63.53;101238.84;5037287;28;20041;-93
2022/02/23 08:59:49;;;;;;;10.68;2.63;;;;;;;11.54;63.47;101233.63;5052434;28;20068;-94
2022/02/23 09:02:15;;;;;;;15.43;2.75;;;;;;;11.72;63.64;101235.16;5049786;28;20033;-94
2022/02/23 09:04:41;;;;;;;12.35;2.55;;;;;;;11.73;63.81;101231.63;5045294;28;20079;-94
2022/02/23 09:07:06;;;;;;;16.98;3.33;;;;;;;11.80;63.16;101227.66;5039251;28;20026;-94
2022/02/23 09:09:32;;;;;;;17.60;2.45;;;;;;;11.98;62.67;101232.78;5047422;28;20471;-96
2022/02/23 09:11:58;;;;;;;20.20;3.20;;;;;;;11.94;63.22;101226.84;5059841;28;20025;-95
2022/02/23 09:14:23;;;;;;;11.55;2.60;;;;;;;11.98;62.39;101227.53;5047942;28;20083;-90
2022/02/23 09:16:49;;;;;;;12.45;2.88;;;;;;;12.13;62.71;101221.31;5040301;28;20120;-88
2022/02/23 09:19:15;;;;;;;15.27;2.97;;;;;;;12.23;61.79;101226.88;5049098;28;20079;-90
2022/02/23 09:21:41;;;;;;;18.10;3.13;;;;;;;12.30;62.09;101233.44;5035568;28;20037;-90
2022/02/23 09:24:07;;;;;;;13.57;2.42;;;;;;;12.29;61.50;101223.84;5039411;28;20029;-89
2022/02/23 09:26:33;;;;;;;16.92;3.50;;;;;;;12.56;60.70;101223.94;5044243;28;20094;-90
2022/02/23 09:28:59;;;;;;;17.10;2.97;;;;;;;12.64;60.86;101210.28;5047588;28;20029;-90
2022/02/23 09:31:26;;;;;;;14.00;3.15;;;;;;;12.64;60.53;101210.28;5047194;28;20021;-89
2022/02/23 09:33:54;;;;;;;19.40;3.80;;;;;;;13.02;59.80;101209.56;5053794;28;20121;-89
2022/02/23 09:36:20;;;;;;;20.08;4.15;;;;;;;12.96;59.38;101205.53;5049515;28;20418;-89
2022/02/23 09:38:46;;;;;;;15.63;3.08;;;;;;;13.04;59.60;101208.53;5055207;28;20037;-90
2022/02/23 09:41:16;;;;;;;17.45;3.40;;;;;;;13.04;59.59;101200.59;5054937;28;20036;-91
2022/02/23 09:43:42;;;;;;;15.73;3.85;;;;;;;12.89;59.86;101188.44;5038086;28;20037;-90
2022/02/23 09:46:09;;;;;;;12.38;3.40;;;;;;;13.11;59.54;101193.13;5047343;28;20387;-91
2022/02/23 09:48:35;;;;;;;19.33;3.67;;;;;;;13.56;58.85;101200.75;5039903;28;20028;-90
2022/02/23 09:51:01;;;;;;;23.00;3.75;;;;;;;13.77;58.20;101212.47;5041866;28;20040;-89
2022/02/23 09:53:27;;;;;;;19.13;3.72;;;;;;;13.51;58.84;101189.66;5048087;28;20025;-89
2022/02/23 09:55:56;;;;;;;17.38;3.00;;;;;;;13.24;59.12;101207.19;5052155;28;20056;-89
2022/02/23 09:58:25;;;;;;;15.30;2.67;;;;;;;13.24;59.75;101195.81;5053509;28;20032;-90
2022/02/23 10:00:53;;;;;;;11.48;2.67;;;;;;;13.25;59.61;101189.56;5053413;28;20029;-89
2022/02/23 10:03:18;;;;;;;14.35;2.33;;;;;;;13.51;59.16;101181.72;5051983;28;20079;-89
2022/02/23 10:05:44;;;;;;;12.60;2.45;;;;;;;13.80;58.75;101185.03;5053580;28;20056;-89
2022/02/23 10:08:10;;;;;;;18.23;2.22;;;;;;;13.42;59.44;101176.13;5051861;28;20028;-89
2022/02/23 10:10:38;;;;;;;15.35;2.95;;;;;;;13.92;58.89;101186.84;5053452;28;20017;-89
2022/02/23 10:13:05;;;;;;;16.38;3.15;;;;;;;13.71;58.42;101185.69;5053161;28;20065;-88
2022/02/23 10:15:37;;;;;;;10.75;2.28;;;;;;;14.08;58.52;101176.03;5053377;28;20023;-89
2022/02/23 10:18:10;;;;;;;18.88;2.42;;;;;;;13.99;57.88;101164.31;5046948;28;20021;-89
2022/02/23 10:20:39;;;;;;;20.55;2.72;;;;;;;13.95;58.38;101151.44;5045560;28;20037;-88
2022/02/23 10:23:08;;;;;;;17.40;2.75;;;;;;;14.26;57.43;101155.41;5032756;28;20032;-89
2022/02/23 10:25:38;;;;;;;12.82;1.88;;;;;;;14.23;56.51;101140.59;5038172;28;20020;-88
2022/02/23 10:28:18;;;;;;;16.08;2.70;;;;;;;14.17;56.30;101146.31;5054822;28;20043;-91
2022/02/23 10:30:50;;;;;;;7.88;1.33;;;;;;;15.22;55.34;101128.94;5053622;28;20388;-93
2022/02/23 10:33:24;;;;;;;9.75;1.60;;;;;;;15.67;53.20;101122.88;5061548;28;20037;-94
2022/02/23 10:36:00;;;;;;;9.75;1.70;;;;;;;16.81;51.03;101140.31;5062479;28;20055;-94
2022/02/23 10:38:33;;;;;;;8.93;1.90;;;;;;;17.28;50.03;101135.50;5052378;28;20018;-93
2022/02/23 10:41:00;;;;;;;8.75;1.30;;;;;;;17.57;49.45;101132.16;5058969;28;20017;-93
2022/02/23 10:43:26;;;;;;;9.50;1.77;;;;;;;18.23;48.32;101123.78;5058035;28;20037;-90
2022/02/23 10:46:09;;;;;;;13.82;2.28;;;;;;;17.72;48.07;101133.50;5053645;28;20028;-93
2022/02/23 10:48:43;;;;;;;13.05;1.80;;;;;;;17.02;49.15;101127.94;5043335;28;20028;-89
2022/02/23 10:51:26;;;;;;;10.88;2.05;;;;;;;17.83;48.36;101128.16;5050910;28;20032;-95
2022/02/23 10:53:52;;;;;;;12.15;2.05;;;;;;;17.67;48.13;101122.44;5035391;28;20018;-95
2022/02/23 10:56:29;;;;;;;6.82;1.83;;;;;;;17.78;48.44;101126.81;5054482;28;20029;-94
2022/02/23 10:59:07;;;;;;;11.10;1.80;;;;;;;17.62;48.32;101117.53;5051336;28;20233;-95
2022/02/23 11:01:34;;;;;;;9.25;2.15;;;;;;;18.36;47.34;101120.84;5055547;28;20041;-93
2022/02/23 11:04:03;;;;;;;9.98;1.90;;;;;;;18.28;47.39;101120.72;5043689;28;20049;-95
2022/02/23 11:06:29;;;;;;;11.82;1.70;;;;;;;18.10;47.44;101109.91;5047635;28;20490;-87
2022/02/23 11:08:55;;;;;;;8.30;1.92;;;;;;;17.96;47.53;101106.63;5039179;28;20083;-93
2022/02/23 11:11:24;;;;;;;8.82;1.38;;;;;;;17.66;48.76;101114.63;5043067;28;20087;-94
2022/02/23 11:13:50;;;;;;;8.93;1.88;;;;;;;17.11;49.12;101101.59;5048580;28;20040;-94
2022/02/23 11:16:17;;;;;;;10.35;1.45;;;;;;;17.50;49.06;101091.22;5051301;28;20415;-94
2022/02/23 11:18:45;;;;;;;6.00;1.30;;;;;;;17.18;49.32;101092.13;5045189;28;20025;-86
2022/02/23 11:21:12;;;;;;;5.38;1.33;;;;;;;16.86;50.39;101098.34;5038089;28;20048;-87
2022/02/23 11:23:40;;;;;;;10.77;1.95;;;;;;;16.77;50.01;101101.75;5034949;28;20024;-86